Meppel, Netherlands
Current Conditions -  °F | °C
As of 2:25 AM on Wednesday 22 Oct 2014 (Local Time) from EHGG Reporting Station
Broken Clouds Broken Clouds  
Wind Chill: 50°   Ceiling: 4200
Heat Index: 50°   Visibility: 6mi
Dew Point: 45°   Wind: 17mph
Humidity: 82%   Direction: 310°NW
Pressure: 29.68"   Gusts: 29mph
Location:  52.7°N, 6.19°E
Report Text: EHGG 220025Z AUTO 31015G25KT 270V340 9999 SCT015CB SCT029BKN042 10/07 Q1005 REDZ
Loading
Personal Weather Stations






























Interactive Weather Map
Tropical Storm Tracking
New forecast layout! Learn more

10-Day Weather Forecast

Advertisements
Track Severe Weather on mobile